Time;durP1;ratioP1;P1;durP2;ratioP2;P2;SDS_P1;SDS_P2;PMS_P1;PMS_P2;Temp;Humidity;BMP_temperature;BMP_pressure;BME280_temperature;BME280_humidity;BME280_pressure;Samples;Min_cycle;Max_cycle;Signal;HPM_P1;HPM_P2
2021/11/02 00:02:21;;;;;;;2.63;1.20;;;;;;;;;;5016205;28;20617;-60
2021/11/02 00:04:46;;;;;;;2.97;1.20;;;;;;;;;;5015893;28;20279;-60
2021/11/02 00:07:11;;;;;;;3.03;1.20;;;;;;;;;;5015965;28;20029;-60
2021/11/02 00:09:40;;;;;;;1.10;1.00;;;;;;;;;;5016181;28;20022;-60
2021/11/02 00:12:06;;;;;;;2.95;1.33;;;;;;;;;;5016078;28;20022;-60
2021/11/02 00:14:31;;;;;;;2.65;1.40;;;;;;;;;;5015660;28;20058;-60
2021/11/02 00:17:07;;;;;;;2.80;1.38;;;;;;;;;;5015990;28;20028;-60
2021/11/02 00:19:33;;;;;;;1.40;1.15;;;;;;;;;;5015722;28;20044;-60
2021/11/02 00:22:07;;;;;;;1.70;1.20;;;;;;;;;;5015931;28;20449;-60
2021/11/02 00:27:01;;;;;;;3.38;1.27;;;;;;;;;;5016101;28;20030;-60
2021/11/02 00:29:26;;;;;;;2.90;1.70;;;;;;;;;;5015866;28;20060;-60
2021/11/02 00:31:51;;;;;;;2.22;1.35;;;;;;;;;;5015342;28;20405;-60
2021/11/02 00:34:17;;;;;;;2.25;1.17;;;;;;;;;;5014546;28;20025;-60
2021/11/02 00:36:42;;;;;;;1.83;1.30;;;;;;;;;;5015536;28;20038;-60
2021/11/02 00:39:07;;;;;;;2.35;1.23;;;;;;;;;;5030530;28;20026;-60
2021/11/02 00:41:33;;;;;;;2.72;1.00;;;;;;;;;;5035299;28;20029;-61
2021/11/02 00:43:58;;;;;;;3.17;1.52;;;;;;;;;;5035254;28;20083;-60
2021/11/02 00:46:31;;;;;;;1.23;1.08;;;;;;;;;;5034404;28;20093;-60
2021/11/02 00:49:00;;;;;;;2.27;1.30;;;;;;;;;;5034518;28;20018;-60
2021/11/02 00:51:26;;;;;;;2.30;1.38;;;;;;;;;;5035209;28;20024;-61
2021/11/02 00:53:51;;;;;;;1.60;1.10;;;;;;;;;;5033777;28;20380;-60
2021/11/02 00:56:16;;;;;;;1.83;1.30;;;;;;;;;;5035378;28;20071;-60
2021/11/02 00:58:41;;;;;;;1.95;1.38;;;;;;;;;;5034875;28;20112;-60
2021/11/02 01:01:07;;;;;;;2.10;1.17;;;;;;;;;;5034673;28;20017;-60
2021/11/02 01:03:33;;;;;;;2.47;1.20;;;;;;;;;;5034837;28;20080;-60
2021/11/02 01:05:58;;;;;;;3.28;1.30;;;;;;;;;;5034473;28;20271;-60
2021/11/02 01:08:24;;;;;;;2.57;1.40;;;;;;;;;;5034812;28;20342;-60
2021/11/02 01:10:49;;;;;;;3.22;1.10;;;;;;;;;;5034590;28;20251;-61
2021/11/02 01:13:15;;;;;;;3.60;1.33;;;;;;;;;;5034844;28;20073;-60
2021/11/02 01:15:40;;;;;;;2.00;1.27;;;;;;;;;;5034351;28;20022;-60
2021/11/02 01:18:06;;;;;;;1.85;1.25;;;;;;;;;;5034426;28;20028;-61
2021/11/02 01:20:31;;;;;;;2.53;1.13;;;;;;;;;;5033279;28;20028;-60
2021/11/02 01:22:57;;;;;;;1.83;1.23;;;;;;;;;;5034331;28;20075;-60
2021/11/02 01:25:22;;;;;;;1.92;1.23;;;;;;;;;;5034421;28;20373;-60
2021/11/02 01:27:49;;;;;;;3.30;1.40;;;;;;;;;;5034400;28;20096;-60
2021/11/02 01:30:14;;;;;;;2.78;1.75;;;;;;;;;;5033113;28;20018;-61
2021/11/02 01:32:41;;;;;;;2.78;1.58;;;;;;;;;;5034257;28;20017;-61
2021/11/02 01:35:06;;;;;;;3.40;1.63;;;;;;;;;;5034388;28;20109;-60
2021/11/02 01:37:32;;;;;;;2.72;1.35;;;;;;;;;;5032338;28;20279;-60
2021/11/02 01:39:59;;;;;;;3.28;1.40;;;;;;;;;;5014462;28;20522;-60
2021/11/02 01:42:25;;;;;;;4.13;1.40;;;;;;;;;;5014537;28;20032;-60
2021/11/02 01:44:53;;;;;;;1.80;1.30;;;;;;;;;;5014189;28;20026;-60
2021/11/02 01:47:18;;;;;;;1.77;1.27;;;;;;;;;;5014309;28;20089;-60
2021/11/02 01:49:44;;;;;;;1.50;1.15;;;;;;;;;;5014222;28;20105;-61
2021/11/02 01:52:09;;;;;;;3.08;1.30;;;;;;;;;;5014197;28;20416;-60
2021/11/02 01:54:34;;;;;;;4.18;1.25;;;;;;;;;;5013997;28;20060;-60
2021/11/02 01:57:00;;;;;;;1.52;1.25;;;;;;;;;;5014160;28;20030;-60
2021/11/02 01:59:28;;;;;;;1.42;1.33;;;;;;;;;;5013592;28;20430;-60
2021/11/02 02:02:01;;;;;;;4.45;1.45;;;;;;;;;;5036289;23;20049;-60
2021/11/02 02:04:32;;;;;;;1.65;1.20;;;;;;;;;;5033560;28;20659;-60
2021/11/02 02:06:57;;;;;;;2.50;1.30;;;;;;;;;;5033563;28;20045;-60
2021/11/02 02:09:29;;;;;;;1.75;1.25;;;;;;;;;;5033667;28;20079;-60
2021/11/02 02:11:55;;;;;;;1.98;1.23;;;;;;;;;;5033568;28;20021;-60
2021/11/02 02:14:20;;;;;;;4.63;2.03;;;;;;;;;;5033664;28;20104;-60
2021/11/02 02:16:51;;;;;;;2.80;1.67;;;;;;;;;;5033458;28;20058;-61
2021/11/02 02:19:36;;;;;;;3.70;1.40;;;;;;;;;;5033577;28;20021;-60
2021/11/02 02:22:19;;;;;;;3.15;1.30;;;;;;;;;;5033166;28;20460;-60
2021/11/02 02:24:53;;;;;;;2.03;1.48;;;;;;;;;;5033168;28;20036;-61
2021/11/02 02:27:23;;;;;;;1.30;1.00;;;;;;;;;;5033574;28;20026;-61
2021/11/02 02:29:49;;;;;;;3.28;1.50;;;;;;;;;;5033332;28;20419;-60
2021/11/02 02:32:18;;;;;;;2.53;1.40;;;;;;;;;;5033418;28;20017;-60
2021/11/02 02:34:49;;;;;;;2.42;1.30;;;;;;;;;;5033184;28;20064;-60
2021/11/02 02:37:16;;;;;;;1.75;1.17;;;;;;;;;;5033353;28;20021;-60
2021/11/02 02:39:42;;;;;;;1.80;1.10;;;;;;;;;;5033087;28;20432;-60
2021/11/02 02:42:08;;;;;;;2.25;1.65;;;;;;;;;;5033187;28;20520;-60
2021/11/02 02:44:33;;;;;;;1.30;1.20;;;;;;;;;;5033333;28;20105;-60
2021/11/02 02:47:00;;;;;;;1.60;1.10;;;;;;;;;;5033095;28;20177;-60
2021/11/02 02:49:26;;;;;;;3.22;0.90;;;;;;;;;;5033371;28;20017;-60
2021/11/02 02:51:53;;;;;;;2.05;1.08;;;;;;;;;;5033030;28;20025;-60
2021/11/02 02:54:19;;;;;;;2.47;1.20;;;;;;;;;;5033252;28;20461;-60
2021/11/02 02:56:45;;;;;;;2.83;0.98;;;;;;;;;;5032765;28;20035;-60
2021/11/02 02:59:11;;;;;;;1.83;1.15;;;;;;;;;;5033202;28;20018;-60
2021/11/02 03:01:37;;;;;;;2.40;0.80;;;;;;;;;;5033026;28;20042;-60
2021/11/02 03:04:05;;;;;;;3.80;1.35;;;;;;;;;;5033027;28;20100;-60
2021/11/02 03:06:32;;;;;;;2.08;0.90;;;;;;;;;;5032680;28;20021;-60
2021/11/02 03:08:58;;;;;;;1.80;0.77;;;;;;;;;;5032677;28;20060;-60
2021/11/02 03:11:24;;;;;;;3.35;1.08;;;;;;;;;;5035423;28;20425;-60
2021/11/02 03:13:51;;;;;;;2.70;0.85;;;;;;;;;;5036849;28;20017;-60
2021/11/02 03:16:20;;;;;;;1.05;0.70;;;;;;;;;;5036900;28;20388;-60
2021/11/02 03:48:57;;;;;;;1.17;0.82;;;;;;;;;;5036264;28;20093;-60
2021/11/02 03:57:07;;;;;;;1.70;0.80;;;;;;;;;;5036122;28;20029;-60
2021/11/02 04:22:17;;;;;;;0.80;0.52;;;;;;;;;;5035995;28;20096;-61
2021/11/02 04:29:56;;;;;;;1.50;0.40;;;;;;;;;;5035860;28;20051;-61
2021/11/02 04:35:17;;;;;;;1.17;0.50;;;;;;;;;;5035432;28;20378;-60
2021/11/02 05:10:39;;;;;;;2.30;0.73;;;;;;;;;;5034898;28;20024;-60
2021/11/02 05:48:57;;;;;;;0.70;0.30;;;;;;;;;;5012142;28;20113;-60
2021/11/02 05:54:24;;;;;;;0.88;0.30;;;;;;;;;;5011938;28;20030;-60
2021/11/02 06:04:47;;;;;;;0.80;0.10;;;;;;;;;;5033666;28;20031;-60
2021/11/02 06:29:19;;;;;;;0.82;0.32;;;;;;;;;;5033272;28;20052;-60
2021/11/02 06:31:54;;;;;;;1.05;0.40;;;;;;;;;;5033149;28;20009;-60
2021/11/02 06:34:33;;;;;;;2.85;0.55;;;;;;;;;;5033385;28;20017;-60
2021/11/02 06:42:47;;;;;;;2.33;0.50;;;;;;;;;;5033595;28;20037;-60
2021/11/02 06:48:29;;;;;;;2.30;0.40;;;;;;;;;;5033218;28;20093;-60
2021/11/02 07:10:57;;;;;;;1.58;0.40;;;;;;;;;;5033052;28;20057;-60
2021/11/02 07:15:42;;;;;;;1.65;0.60;;;;;;;;;;5033180;28;20036;-60
2021/11/02 07:18:18;;;;;;;1.67;0.30;;;;;;;;;;5033026;28;20028;-60
2021/11/02 07:20:54;;;;;;;1.48;0.32;;;;;;;;;;5032816;28;20079;-60
2021/11/02 07:23:36;;;;;;;0.88;0.22;;;;;;;;;;5032878;28;20025;-60
2021/11/02 08:46:42;;;;;;;1.52;0.80;;;;;;;;;;5035238;28;20029;-60
2021/11/02 08:49:08;;;;;;;1.45;0.57;;;;;;;;;;5033912;28;20028;-60
2021/11/02 08:51:34;;;;;;;4.38;1.05;;;;;;;;;;5035068;28;20014;-60
2021/11/02 08:54:00;;;;;;;0.75;0.10;;;;;;;;;;5035122;28;20014;-60
2021/11/02 08:56:25;;;;;;;1.83;0.45;;;;;;;;;;5034788;28;20404;-60
2021/11/02 08:58:52;;;;;;;1.83;0.57;;;;;;;;;;5034766;28;20029;-60
2021/11/02 09:01:21;;;;;;;0.73;0.40;;;;;;;;;;5035067;28;20083;-60
2021/11/02 09:03:47;;;;;;;1.85;0.38;;;;;;;;;;5034604;28;20022;-60
2021/11/02 09:06:15;;;;;;;1.08;0.40;;;;;;;;;;5034843;28;20060;-59
2021/11/02 09:08:45;;;;;;;0.35;0.30;;;;;;;;;;5033885;28;20013;-60
2021/11/02 09:11:12;;;;;;;0.90;0.35;;;;;;;;;;5034695;28;20504;-60
2021/11/02 09:13:37;;;;;;;1.00;0.40;;;;;;;;;;5034779;28;20030;-60
2021/11/02 09:16:03;;;;;;;3.70;0.45;;;;;;;;;;5034592;28;20505;-60
2021/11/02 09:18:29;;;;;;;1.45;0.50;;;;;;;;;;5034627;28;20075;-60
2021/11/02 09:20:58;;;;;;;0.73;0.22;;;;;;;;;;5034351;28;20071;-60
2021/11/02 09:23:23;;;;;;;1.50;0.38;;;;;;;;;;5034438;28;20025;-60
2021/11/02 09:25:51;;;;;;;0.98;0.50;;;;;;;;;;5034137;28;20022;-60
2021/11/02 09:28:17;;;;;;;1.33;0.40;;;;;;;;;;5034478;28;20567;-60
2021/11/02 09:30:42;;;;;;;0.82;0.35;;;;;;;;;;5033845;28;20049;-60
2021/11/02 09:33:08;;;;;;;0.80;0.35;;;;;;;;;;5034187;28;20022;-59
2021/11/02 09:35:34;;;;;;;0.73;0.30;;;;;;;;;;5034301;28;20025;-59
2021/11/02 09:38:05;;;;;;;1.15;0.47;;;;;;;;;;5034108;28;20017;-60
2021/11/02 09:40:30;;;;;;;0.80;0.38;;;;;;;;;;5034277;28;20021;-60
2021/11/02 09:43:19;;;;;;;2.10;0.63;;;;;;;;;;5033857;28;20108;-60
2021/11/02 09:45:46;;;;;;;0.82;0.20;;;;;;;;;;4953283;29;20031;-60
2021/11/02 09:48:11;;;;;;;1.30;0.40;;;;;;;;;;4953511;29;20478;-60
2021/11/02 09:51:01;;;;;;;1.63;0.20;;;;;;;;;;4943056;29;20059;-60
2021/11/02 09:53:26;;;;;;;1.70;0.32;;;;;;;;;;4942893;29;20266;-60
2021/11/02 09:55:53;;;;;;;0.88;0.40;;;;;;;;;;4951223;28;20038;-60
2021/11/02 09:58:36;;;;;;;1.58;0.40;;;;;;;;;;4947899;29;20053;-60
2021/11/02 10:01:05;;;;;;;1.13;0.60;;;;;;;;;;4949448;29;20102;-60
2021/11/02 10:03:50;;;;;;;1.00;0.40;;;;;;;;;;4951970;29;20063;-60
2021/11/02 10:06:27;;;;;;;1.58;0.35;;;;;;;;;;4948341;29;20517;-60
2021/11/02 10:09:01;;;;;;;0.40;0.25;;;;;;;;;;4950172;29;20043;-60
2021/11/02 10:11:50;;;;;;;1.60;0.40;;;;;;;;;;4953091;29;20020;-60
2021/11/02 10:14:29;;;;;;;1.25;0.35;;;;;;;;;;4896208;29;20036;-60
2021/11/02 10:17:02;;;;;;;1.65;0.30;;;;;;;;;;4896542;29;20586;-60
2021/11/02 10:19:57;;;;;;;1.25;0.35;;;;;;;;;;4896258;29;20044;-60
2021/11/02 10:22:40;;;;;;;0.68;0.20;;;;;;;;;;4889722;29;20117;-60
2021/11/02 10:25:05;;;;;;;1.48;0.40;;;;;;;;;;4914989;29;20031;-60
2021/11/02 10:27:43;;;;;;;1.08;0.40;;;;;;;;;;4914827;29;20047;-60
2021/11/02 10:30:29;;;;;;;1.83;0.77;;;;;;;;;;4915090;29;20071;-60
2021/11/02 10:33:00;;;;;;;1.65;0.43;;;;;;;;;;4914950;29;20108;-60
2021/11/02 10:35:44;;;;;;;1.27;0.22;;;;;;;;;;4915083;29;20035;-60
2021/11/02 10:38:11;;;;;;;1.17;0.40;;;;;;;;;;4915093;29;20039;-60
2021/11/02 10:40:56;;;;;;;0.77;0.30;;;;;;;;;;4914958;29;20032;-60
2021/11/02 10:43:43;;;;;;;0.60;0.43;;;;;;;;;;4914906;29;20040;-60
2021/11/02 10:46:10;;;;;;;0.30;0.20;;;;;;;;;;4914908;29;20041;-60
2021/11/02 10:48:39;;;;;;;1.15;0.80;;;;;;;;;;4914661;29;20024;-60
2021/11/02 10:51:06;;;;;;;1.83;0.25;;;;;;;;;;4947593;28;20027;-60
2021/11/02 10:53:38;;;;;;;0.93;0.20;;;;;;;;;;4991684;28;20041;-60
2021/11/02 10:56:09;;;;;;;0.68;0.40;;;;;;;;;;4991537;28;20101;-60
2021/11/02 10:58:35;;;;;;;1.80;0.55;;;;;;;;;;5000631;28;20038;-60
2021/11/02 11:01:05;;;;;;;1.25;0.32;;;;;;;;;;5013217;28;20089;-60
2021/11/02 11:03:31;;;;;;;0.98;0.63;;;;;;;;;;5013400;28;20030;-60
2021/11/02 11:06:03;;;;;;;1.73;0.50;;;;;;;;;;5018560;28;20360;-60
2021/11/02 11:08:34;;;;;;;1.10;0.20;;;;;;;;;;5032344;28;20387;-60
2021/11/02 11:11:00;;;;;;;3.17;0.30;;;;;;;;;;5032933;28;20101;-60
2021/11/02 11:13:28;;;;;;;1.73;0.43;;;;;;;;;;5032473;28;20152;-60
2021/11/02 11:15:57;;;;;;;1.67;0.43;;;;;;;;;;5032385;28;20022;-60
2021/11/02 11:18:25;;;;;;;0.50;0.30;;;;;;;;;;5034597;28;20074;-60
2021/11/02 11:20:50;;;;;;;0.60;0.22;;;;;;;;;;5032801;28;20096;-60
2021/11/02 11:23:17;;;;;;;1.65;0.35;;;;;;;;;;5044139;28;20108;-60
2021/11/02 11:25:45;;;;;;;2.83;0.30;;;;;;;;;;5041256;28;20029;-60
2021/11/02 11:28:14;;;;;;;1.08;0.38;;;;;;;;;;5032927;28;20056;-60
2021/11/02 11:30:40;;;;;;;1.55;0.38;;;;;;;;;;5032489;28;20040;-60
2021/11/02 11:33:06;;;;;;;2.05;0.50;;;;;;;;;;5036248;28;20100;-61
2021/11/02 11:35:34;;;;;;;1.00;0.35;;;;;;;;;;5036353;28;20025;-60
2021/11/02 11:38:02;;;;;;;0.75;0.45;;;;;;;;;;5036402;28;20020;-60
2021/11/02 11:40:28;;;;;;;1.02;0.20;;;;;;;;;;5036192;28;20056;-60
2021/11/02 11:42:56;;;;;;;0.82;0.45;;;;;;;;;;5035903;28;20053;-60
2021/11/02 11:45:23;;;;;;;1.35;0.40;;;;;;;;;;5034484;28;20022;-60
2021/11/02 11:48:22;;;;;;;1.42;0.30;;;;;;;;;;5037531;28;20039;-60
2021/11/02 11:50:48;;;;;;;1.95;0.30;;;;;;;;;;4955589;29;20035;-60
2021/11/02 11:53:17;;;;;;;4.53;0.70;;;;;;;;;;4955905;29;20078;-60
2021/11/02 11:55:43;;;;;;;0.77;0.38;;;;;;;;;;4955477;29;20046;-60
2021/11/02 11:58:11;;;;;;;1.20;0.70;;;;;;;;;;4955918;29;20035;-60
2021/11/02 12:00:40;;;;;;;3.10;0.50;;;;;;;;;;4955616;29;20403;-60
2021/11/02 12:03:11;;;;;;;1.25;0.40;;;;;;;;;;4955473;29;20082;-60
2021/11/02 12:06:00;;;;;;;0.63;0.20;;;;;;;;;;4955572;29;20023;-60
2021/11/02 12:08:37;;;;;;;0.93;0.43;;;;;;;;;;4943233;29;20035;-60
2021/11/02 12:11:03;;;;;;;0.32;0.20;;;;;;;;;;4955104;29;20027;-60
2021/11/02 12:13:28;;;;;;;1.13;0.30;;;;;;;;;;4955586;29;20035;-60
2021/11/02 12:16:14;;;;;;;0.77;0.38;;;;;;;;;;4955352;29;20534;-60
2021/11/02 12:18:42;;;;;;;4.68;0.52;;;;;;;;;;4955157;29;20066;-60
2021/11/02 12:21:16;;;;;;;1.35;0.30;;;;;;;;;;4955490;29;20652;-60
2021/11/02 12:23:42;;;;;;;1.50;0.82;;;;;;;;;;4954480;28;20133;-60
2021/11/02 12:26:08;;;;;;;1.17;0.50;;;;;;;;;;4999159;28;20033;-60
2021/11/02 12:28:38;;;;;;;0.77;0.28;;;;;;;;;;5034649;28;20104;-60
2021/11/02 12:31:04;;;;;;;1.35;0.40;;;;;;;;;;5032961;28;20025;-60
2021/11/02 12:33:30;;;;;;;1.50;0.77;;;;;;;;;;5045466;28;20064;-60
2021/11/02 12:35:57;;;;;;;2.70;0.60;;;;;;;;;;5034237;28;20049;-60
2021/11/02 12:38:30;;;;;;;1.25;0.20;;;;;;;;;;5033463;28;20032;-60
2021/11/02 12:40:55;;;;;;;1.17;0.50;;;;;;;;;;5039545;28;20024;-60
2021/11/02 12:43:22;;;;;;;1.13;0.38;;;;;;;;;;5035456;28;20100;-60
2021/11/02 12:45:48;;;;;;;1.95;0.35;;;;;;;;;;5034176;28;20022;-60
2021/11/02 12:48:13;;;;;;;1.23;0.70;;;;;;;;;;5037434;28;20033;-60
2021/11/02 12:50:39;;;;;;;2.20;0.47;;;;;;;;;;5038071;28;20064;-60
2021/11/02 12:53:05;;;;;;;0.60;0.45;;;;;;;;;;5034293;28;20024;-60
2021/11/02 12:55:31;;;;;;;1.20;0.20;;;;;;;;;;5031564;28;20410;-60
2021/11/02 12:58:11;;;;;;;2.03;0.47;;;;;;;;;;5027865;28;20033;-60
2021/11/02 13:00:42;;;;;;;0.63;0.20;;;;;;;;;;5034162;28;20027;-60
2021/11/02 13:03:09;;;;;;;0.85;0.40;;;;;;;;;;5034095;28;20017;-60
2021/11/02 13:05:36;;;;;;;1.30;0.38;;;;;;;;;;5033088;28;20029;-60
2021/11/02 13:08:07;;;;;;;2.13;0.30;;;;;;;;;;5033167;28;20024;-60
2021/11/02 13:10:33;;;;;;;1.10;0.38;;;;;;;;;;5033539;28;20013;-59
2021/11/02 13:13:08;;;;;;;1.45;0.30;;;;;;;;;;5032942;28;20025;-60
2021/11/02 13:15:53;;;;;;;1.63;0.57;;;;;;;;;;5030908;28;20049;-61
2021/11/02 13:18:35;;;;;;;1.85;0.40;;;;;;;;;;5031237;28;20448;-60
2021/11/02 13:21:20;;;;;;;2.67;0.57;;;;;;;;;;5033905;28;20120;-60
2021/11/02 13:23:51;;;;;;;0.75;0.43;;;;;;;;;;5023501;28;20029;-60
2021/11/02 13:26:17;;;;;;;1.27;0.40;;;;;;;;;;5033514;28;20025;-60
2021/11/02 13:28:43;;;;;;;3.75;0.40;;;;;;;;;;5033603;28;20072;-60
2021/11/02 13:31:23;;;;;;;0.98;0.35;;;;;;;;;;5034267;28;20014;-60
2021/11/02 13:33:58;;;;;;;1.05;0.30;;;;;;;;;;5033333;28;20041;-60
2021/11/02 13:36:23;;;;;;;1.17;0.30;;;;;;;;;;5029012;28;20064;-60
2021/11/02 13:38:48;;;;;;;1.73;0.40;;;;;;;;;;5033301;28;20426;-60
2021/11/02 13:41:17;;;;;;;0.57;0.30;;;;;;;;;;5031652;28;20538;-60
2021/11/02 13:43:44;;;;;;;1.05;0.60;;;;;;;;;;5030408;28;20017;-60
2021/11/02 13:46:10;;;;;;;0.52;0.47;;;;;;;;;;5030124;28;20035;-60
2021/11/02 13:48:36;;;;;;;1.67;0.90;;;;;;;;;;5035364;28;20407;-60
2021/11/02 13:51:02;;;;;;;0.95;0.60;;;;;;;;;;5032099;28;20025;-60
2021/11/02 13:53:32;;;;;;;1.23;0.30;;;;;;;;;;5035962;28;20025;-60
2021/11/02 13:55:58;;;;;;;0.45;0.40;;;;;;;;;;5050176;28;20415;-60
2021/11/02 13:58:23;;;;;;;0.63;0.57;;;;;;;;;;5041165;28;20104;-60
2021/11/02 14:00:48;;;;;;;2.17;0.73;;;;;;;;;;5032724;28;20041;-60
2021/11/02 14:03:16;;;;;;;1.20;0.38;;;;;;;;;;5032198;28;20412;-61
2021/11/02 14:05:44;;;;;;;1.15;0.38;;;;;;;;;;5039404;28;20029;-61
2021/11/02 14:08:09;;;;;;;0.85;0.30;;;;;;;;;;5032788;28;20408;-60
2021/11/02 14:10:35;;;;;;;1.58;0.40;;;;;;;;;;5032862;28;20469;-60
2021/11/02 14:13:00;;;;;;;1.23;0.40;;;;;;;;;;5032755;28;20044;-60
2021/11/02 14:15:29;;;;;;;1.25;0.40;;;;;;;;;;5031225;28;20066;-60
2021/11/02 14:17:57;;;;;;;1.23;0.22;;;;;;;;;;5028429;28;20026;-60
2021/11/02 14:20:43;;;;;;;1.08;0.40;;;;;;;;;;5032661;28;20026;-60
2021/11/02 14:23:15;;;;;;;1.27;0.73;;;;;;;;;;5025478;28;20088;-60
2021/11/02 14:25:41;;;;;;;2.28;0.40;;;;;;;;;;5028385;28;20029;-61
2021/11/02 14:28:06;;;;;;;1.33;0.30;;;;;;;;;;5026710;28;20037;-60
2021/11/02 14:30:32;;;;;;;0.52;0.40;;;;;;;;;;5028018;28;20029;-60
2021/11/02 14:33:07;;;;;;;1.30;0.47;;;;;;;;;;5029385;28;20067;-60
2021/11/02 14:35:46;;;;;;;0.40;0.35;;;;;;;;;;5026516;28;20392;-60
2021/11/02 14:38:15;;;;;;;2.10;0.65;;;;;;;;;;5027758;28;20393;-60
2021/11/02 14:40:42;;;;;;;1.08;0.40;;;;;;;;;;5028658;28;20021;-61
2021/11/02 14:43:13;;;;;;;1.67;0.30;;;;;;;;;;5026587;28;20034;-60
2021/11/02 14:45:40;;;;;;;1.75;0.60;;;;;;;;;;5028260;28;20416;-61
2021/11/02 14:48:24;;;;;;;1.00;0.30;;;;;;;;;;5028956;28;20021;-60
2021/11/02 14:50:49;;;;;;;1.75;0.43;;;;;;;;;;5032797;28;20091;-60
2021/11/02 14:53:38;;;;;;;2.00;0.40;;;;;;;;;;5033342;28;20026;-60
2021/11/02 14:56:06;;;;;;;0.95;0.30;;;;;;;;;;5021262;28;20067;-60
2021/11/02 14:58:41;;;;;;;1.77;0.32;;;;;;;;;;5035133;28;20113;-60
2021/11/02 15:01:14;;;;;;;0.57;0.25;;;;;;;;;;5038226;28;20484;-60
2021/11/02 15:03:40;;;;;;;0.63;0.30;;;;;;;;;;5033015;28;20028;-61
2021/11/02 15:06:06;;;;;;;4.47;0.57;;;;;;;;;;5046377;28;20377;-60
2021/11/02 15:08:33;;;;;;;2.15;0.70;;;;;;;;;;5042922;28;20033;-60
2021/11/02 15:11:02;;;;;;;4.03;0.60;;;;;;;;;;5029393;28;20024;-60
2021/11/02 15:13:27;;;;;;;0.43;0.25;;;;;;;;;;5030969;28;20021;-61
2021/11/02 15:15:53;;;;;;;1.15;0.47;;;;;;;;;;5029635;28;20028;-61
2021/11/02 15:18:19;;;;;;;1.00;0.45;;;;;;;;;;5030656;28;20033;-60
2021/11/02 15:20:45;;;;;;;1.30;0.50;;;;;;;;;;5030395;28;20527;-59
2021/11/02 15:23:10;;;;;;;0.82;0.40;;;;;;;;;;5031164;28;20029;-60
2021/11/02 15:25:35;;;;;;;1.33;0.38;;;;;;;;;;5033768;28;20021;-60
2021/11/02 15:28:02;;;;;;;1.90;0.30;;;;;;;;;;5032687;28;20018;-61
2021/11/02 15:30:28;;;;;;;1.60;0.50;;;;;;;;;;5032122;28;20254;-60
2021/11/02 15:32:53;;;;;;;0.63;0.30;;;;;;;;;;5030612;28;20660;-60
2021/11/02 15:35:21;;;;;;;1.58;0.73;;;;;;;;;;5035092;28;20025;-60
2021/11/02 15:37:48;;;;;;;1.25;0.30;;;;;;;;;;5033325;28;20049;-60
2021/11/02 15:40:15;;;;;;;1.17;0.45;;;;;;;;;;5037112;28;20120;-60
2021/11/02 15:42:42;;;;;;;0.60;0.20;;;;;;;;;;5045579;28;20027;-60
2021/11/02 15:45:36;;;;;;;1.35;0.77;;;;;;;;;;5044625;28;20009;-61
2021/11/02 15:48:10;;;;;;;0.90;0.30;;;;;;;;;;5033229;28;20057;-61
2021/11/02 15:50:36;;;;;;;0.70;0.20;;;;;;;;;;5033751;28;20389;-60
2021/11/02 15:53:03;;;;;;;1.00;0.32;;;;;;;;;;5033008;28;20026;-60
2021/11/02 15:55:29;;;;;;;1.08;0.50;;;;;;;;;;5032971;28;20071;-61
2021/11/02 15:57:55;;;;;;;1.48;0.40;;;;;;;;;;5035173;28;20526;-60
2021/11/02 16:00:26;;;;;;;0.88;0.40;;;;;;;;;;5035209;28;20030;-61
2021/11/02 16:02:52;;;;;;;1.77;0.50;;;;;;;;;;5035798;28;20025;-60
2021/11/02 16:05:18;;;;;;;1.25;0.32;;;;;;;;;;5036022;28;20067;-60
2021/11/02 16:07:44;;;;;;;0.73;0.30;;;;;;;;;;5035596;28;20021;-60
2021/11/02 16:10:09;;;;;;;1.45;0.82;;;;;;;;;;5034951;28;20018;-61
2021/11/02 16:12:37;;;;;;;2.10;0.43;;;;;;;;;;5034850;28;20017;-60
2021/11/02 16:15:05;;;;;;;1.05;0.30;;;;;;;;;;5035798;28;20026;-60
2021/11/02 16:17:36;;;;;;;1.25;0.40;;;;;;;;;;5035589;28;20025;-60
2021/11/02 16:20:02;;;;;;;2.05;0.50;;;;;;;;;;5035803;28;20017;-60
2021/11/02 16:22:27;;;;;;;2.78;0.50;;;;;;;;;;5035842;28;20480;-60
2021/11/02 16:25:06;;;;;;;2.50;0.40;;;;;;;;;;5035660;28;20024;-60
2021/11/02 16:27:31;;;;;;;1.58;0.22;;;;;;;;;;5035610;28;20028;-60
2021/11/02 16:29:57;;;;;;;1.65;0.70;;;;;;;;;;5035475;28;20014;-60
2021/11/02 16:32:24;;;;;;;1.30;0.43;;;;;;;;;;5035512;28;20050;-60
2021/11/02 16:34:50;;;;;;;3.17;1.00;;;;;;;;;;5035213;28;20022;-60
2021/11/02 16:37:33;;;;;;;1.13;0.50;;;;;;;;;;5035441;28;20068;-61
2021/11/02 16:40:18;;;;;;;0.57;0.40;;;;;;;;;;5015421;28;20026;-60
2021/11/02 16:42:55;;;;;;;1.65;0.28;;;;;;;;;;5015494;28;20069;-60
2021/11/02 16:45:20;;;;;;;2.30;0.85;;;;;;;;;;5015526;28;20022;-61
2021/11/02 16:47:52;;;;;;;1.67;0.40;;;;;;;;;;5015355;28;20033;-61
2021/11/02 16:50:17;;;;;;;1.75;0.38;;;;;;;;;;5015403;28;20030;-60
2021/11/02 16:52:42;;;;;;;1.80;0.50;;;;;;;;;;5015188;28;20037;-60
2021/11/02 16:55:09;;;;;;;0.60;0.40;;;;;;;;;;5015516;28;20579;-60
2021/11/02 16:57:34;;;;;;;1.38;0.40;;;;;;;;;;5015306;28;20026;-60
2021/11/02 17:00:15;;;;;;;0.85;0.20;;;;;;;;;;5015098;28;20034;-60
2021/11/02 17:02:41;;;;;;;1.08;0.47;;;;;;;;;;5014928;28;20437;-60
2021/11/02 17:05:10;;;;;;;0.73;0.40;;;;;;;;;;5015010;28;20109;-60
2021/11/02 17:07:44;;;;;;;2.40;0.30;;;;;;;;;;5014949;28;20531;-60
2021/11/02 17:10:09;;;;;;;;;;;;;;;;;;5015452;28;20097;-60
2021/11/02 17:12:38;;;;;;;0.63;0.40;;;;;;;;;;5014761;28;19960;-61
2021/11/02 17:15:04;;;;;;;0.40;0.20;;;;;;;;;;5015108;28;20240;-60
2021/11/02 17:17:39;;;;;;;1.25;0.30;;;;;;;;;;5015002;28;20600;-61
2021/11/02 17:20:08;;;;;;;3.20;0.82;;;;;;;;;;5014894;28;20022;-60
2021/11/02 17:22:33;;;;;;;0.93;0.32;;;;;;;;;;5014918;28;20076;-61
2021/11/02 17:24:58;;;;;;;1.35;0.38;;;;;;;;;;5014756;28;20018;-62
2021/11/02 17:27:24;;;;;;;1.07;0.50;;;;;;;;;;5014812;28;20018;-60
2021/11/02 17:29:49;;;;;;;1.63;0.40;;;;;;;;;;5013931;28;20733;-60
2021/11/02 17:32:15;;;;;;;1.70;0.50;;;;;;;;;;5014669;28;20046;-60
2021/11/02 17:34:40;;;;;;;2.33;0.55;;;;;;;;;;5014400;28;20022;-60
2021/11/02 17:37:07;;;;;;;1.40;0.60;;;;;;;;;;5014469;28;20104;-60
2021/11/02 17:39:33;;;;;;;3.00;0.60;;;;;;;;;;5032588;28;20029;-61
2021/11/02 17:41:59;;;;;;;1.00;0.40;;;;;;;;;;5034086;28;20048;-60
2021/11/02 17:44:24;;;;;;;1.02;0.35;;;;;;;;;;5034248;28;20464;-60
2021/11/02 17:46:50;;;;;;;1.80;0.40;;;;;;;;;;5033997;28;20021;-60
2021/11/02 17:49:15;;;;;;;1.70;0.50;;;;;;;;;;5034154;28;20451;-61
2021/11/02 17:51:41;;;;;;;0.93;0.52;;;;;;;;;;5033985;28;20018;-61
2021/11/02 17:54:07;;;;;;;0.63;0.30;;;;;;;;;;5034077;28;20412;-60
2021/11/02 17:56:32;;;;;;;1.00;0.50;;;;;;;;;;5033895;28;20025;-60
2021/11/02 17:58:58;;;;;;;2.15;0.60;;;;;;;;;;5033762;28;20029;-61
2021/11/02 18:01:24;;;;;;;2.08;0.70;;;;;;;;;;5033844;28;20460;-60
2021/11/02 18:03:50;;;;;;;1.00;0.30;;;;;;;;;;5033769;28;20100;-60
2021/11/02 18:06:16;;;;;;;2.33;0.60;;;;;;;;;;5033372;28;20488;-61
2021/11/02 18:08:42;;;;;;;2.63;0.50;;;;;;;;;;5033680;28;20032;-60
2021/11/02 18:11:08;;;;;;;1.70;0.82;;;;;;;;;;5033854;28;20025;-60
2021/11/02 18:13:34;;;;;;;1.48;0.73;;;;;;;;;;5033671;28;20104;-60
2021/11/02 18:16:03;;;;;;;0.45;0.40;;;;;;;;;;5033528;28;20036;-60
2021/11/02 18:18:31;;;;;;;2.78;0.70;;;;;;;;;;5033768;28;20025;-60
2021/11/02 18:20:57;;;;;;;2.67;0.50;;;;;;;;;;5033559;28;20026;-61
2021/11/02 18:23:22;;;;;;;1.42;0.50;;;;;;;;;;5033584;28;20028;-60
2021/11/02 18:25:48;;;;;;;0.90;0.57;;;;;;;;;;5032463;28;20052;-61
2021/11/02 18:28:13;;;;;;;3.28;0.50;;;;;;;;;;5033593;28;20021;-60
2021/11/02 18:30:38;;;;;;;0.85;0.50;;;;;;;;;;5033444;28;20022;-60
2021/11/02 18:33:05;;;;;;;2.40;0.75;;;;;;;;;;5033500;28;20100;-60
2021/11/02 18:35:31;;;;;;;1.98;0.20;;;;;;;;;;5033323;28;20017;-60
2021/11/02 18:37:56;;;;;;;1.00;0.50;;;;;;;;;;5033164;28;20023;-60
2021/11/02 18:40:22;;;;;;;0.73;0.50;;;;;;;;;;5032957;28;20404;-60
2021/11/02 18:42:53;;;;;;;1.27;0.68;;;;;;;;;;5033193;28;20021;-60
2021/11/02 18:45:21;;;;;;;0.70;0.40;;;;;;;;;;5033554;28;20369;-60
2021/11/02 18:47:46;;;;;;;1.40;0.50;;;;;;;;;;5033245;28;20021;-60
2021/11/02 18:50:12;;;;;;;1.27;0.47;;;;;;;;;;5033415;28;20025;-60
2021/11/02 18:52:37;;;;;;;0.40;0.40;;;;;;;;;;5033269;28;20022;-60
2021/11/02 18:55:03;;;;;;;3.15;0.75;;;;;;;;;;5032986;28;20361;-60
2021/11/02 18:57:28;;;;;;;0.82;0.50;;;;;;;;;;5032876;28;20037;-61
2021/11/02 18:59:54;;;;;;;1.13;0.40;;;;;;;;;;5032986;28;20025;-60
2021/11/02 19:02:19;;;;;;;0.75;0.60;;;;;;;;;;5032973;28;20291;-60
2021/11/02 19:04:46;;;;;;;0.65;0.50;;;;;;;;;;5032870;28;20029;-60
2021/11/02 19:07:11;;;;;;;1.65;0.68;;;;;;;;;;5033096;28;20546;-60
2021/11/02 19:09:36;;;;;;;3.22;0.75;;;;;;;;;;5032996;28;20097;-60
2021/11/02 19:12:02;;;;;;;0.90;0.50;;;;;;;;;;5032934;28;20018;-60
2021/11/02 19:14:28;;;;;;;1.77;0.40;;;;;;;;;;5032987;28;20091;-60
2021/11/02 19:16:53;;;;;;;1.55;0.65;;;;;;;;;;5032725;28;20066;-60
2021/11/02 19:19:18;;;;;;;2.67;0.77;;;;;;;;;;5033093;28;20017;-60
2021/11/02 19:21:44;;;;;;;1.23;0.40;;;;;;;;;;5032744;28;20037;-60
2021/11/02 19:24:09;;;;;;;1.33;0.47;;;;;;;;;;5032993;28;20045;-60
2021/11/02 19:26:34;;;;;;;2.25;0.55;;;;;;;;;;5032366;28;20376;-61
2021/11/02 19:29:00;;;;;;;1.20;0.57;;;;;;;;;;5032897;28;20028;-60
2021/11/02 19:31:26;;;;;;;1.55;0.50;;;;;;;;;;5032836;28;20408;-60
2021/11/02 19:33:52;;;;;;;0.88;0.43;;;;;;;;;;5032539;28;20249;-60
2021/11/02 19:36:18;;;;;;;2.67;0.70;;;;;;;;;;5032750;28;20067;-60